Time;durP1;ratioP1;P1;durP2;ratioP2;P2;SDS_P1;SDS_P2;PMS_P1;PMS_P2;Temp;Humidity;BMP_temperature;BMP_pressure;BME280_temperature;BME280_humidity;BME280_pressure;Samples;Min_cycle;Max_cycle;Signal;HPM_P1;HPM_P2
2022/11/20 00:01:39;;;;;;;;;;;-0.40;99.90;;;;;;5006416;28;20283;-73
2022/11/20 00:04:05;;;;;;;;;;;-0.40;99.90;;;;;;5002808;28;20298;-74
2022/11/20 00:06:30;;;;;;;;;;;-0.40;99.90;;;;;;5002309;28;19944;-74
2022/11/20 00:08:57;;;;;;;;;;;-0.50;99.90;;;;;;5000310;28;20000;-74
2022/11/20 00:11:24;;;;;;;;;;;-0.50;99.90;;;;;;4983923;28;19914;-75
2022/11/20 00:13:50;;;;;;;;;;;-0.50;99.90;;;;;;4999666;28;19940;-74
2022/11/20 00:16:17;;;;;;;;;;;-0.50;99.90;;;;;;5001382;28;19922;-74
2022/11/20 00:18:43;;;;;;;;;;;-0.50;99.90;;;;;;4998062;28;19920;-74
2022/11/20 00:21:13;;;;;;;;;;;-0.50;99.90;;;;;;4983687;28;20020;-74
2022/11/20 00:23:39;;;;;;;;;;;-0.60;99.90;;;;;;4995666;28;19925;-74
2022/11/20 00:26:05;;;;;;;;;;;-0.60;99.90;;;;;;5003188;28;19921;-74
2022/11/20 00:28:31;;;;;;;;;;;-0.60;99.90;;;;;;4989715;28;19918;-73
2022/11/20 00:31:02;;;;;;;;;;;-0.70;99.90;;;;;;4990093;28;19913;-74
2022/11/20 00:33:28;;;;;;;;;;;-0.70;99.90;;;;;;5007172;28;19928;-74
2022/11/20 00:35:53;;;;;;;;;;;-0.70;99.90;;;;;;4989015;28;19922;-74
2022/11/20 00:38:19;;;;;;;;;;;-0.70;99.90;;;;;;5000962;28;19963;-74
2022/11/20 00:40:44;;;;;;;;;;;-0.80;99.90;;;;;;5002253;28;19924;-74
2022/11/20 00:43:10;;;;;;;;;;;-0.80;99.90;;;;;;4980499;28;20337;-74
2022/11/20 00:45:35;;;;;;;;;;;-0.80;99.90;;;;;;4990279;28;19914;-74
2022/11/20 00:48:01;;;;;;;;;;;-0.80;99.90;;;;;;4984832;28;20329;-74
2022/11/20 00:50:26;;;;;;;;;;;-0.80;99.90;;;;;;4983118;28;19918;-74
2022/11/20 00:52:52;;;;;;;;;;;-0.90;99.90;;;;;;4987170;28;19921;-74
2022/11/20 00:55:17;;;;;;;;;;;-0.90;99.90;;;;;;5005789;28;19929;-73
2022/11/20 00:57:43;;;;;;;;;;;-0.90;99.90;;;;;;5005563;28;19924;-74
2022/11/20 01:00:08;;;;;;;;;;;-0.90;99.90;;;;;;4997722;28;19938;-75
2022/11/20 01:02:34;;;;;;;;;;;-0.90;99.90;;;;;;5000165;28;19921;-74
2022/11/20 01:04:59;;;;;;;;;;;-0.90;99.90;;;;;;4981517;28;19920;-74
2022/11/20 01:07:25;;;;;;;;;;;-0.90;99.90;;;;;;4982173;28;19921;-74
2022/11/20 01:09:50;;;;;;;;;;;-1.00;99.90;;;;;;5000958;28;20504;-74
2022/11/20 01:12:16;;;;;;;;;;;-0.90;99.90;;;;;;4996663;28;19917;-73
2022/11/20 01:14:41;;;;;;;;;;;-1.00;99.90;;;;;;4998738;28;20426;-74
2022/11/20 01:17:06;;;;;;;;;;;-1.00;99.90;;;;;;4997851;28;19914;-74
2022/11/20 01:19:32;;;;;;;;;;;-1.00;99.90;;;;;;5000614;28;19914;-73
2022/11/20 01:21:57;;;;;;;;;;;-1.00;99.90;;;;;;4999293;28;20491;-74
2022/11/20 01:24:23;;;;;;;;;;;-1.10;99.90;;;;;;4980609;28;20007;-74
2022/11/20 01:26:50;;;;;;;;;;;-1.10;99.90;;;;;;4985425;28;19917;-74
2022/11/20 01:29:17;;;;;;;;;;;-1.10;99.90;;;;;;5001973;28;19917;-73
2022/11/20 01:31:43;;;;;;;;;;;-1.10;99.90;;;;;;5003181;28;19918;-73
2022/11/20 01:34:16;;;;;;;;;;;-1.10;99.90;;;;;;5008862;28;19937;-74
2022/11/20 01:36:41;;;;;;;;;;;-1.10;99.90;;;;;;5010773;28;19933;-73
2022/11/20 01:39:10;;;;;;;;;;;-1.20;99.90;;;;;;5012388;28;19914;-73
2022/11/20 01:44:21;;;;;;;;;;;-1.20;99.90;;;;;;5015613;28;19924;-74
2022/11/20 01:46:58;;;;;;;;;;;-1.20;99.90;;;;;;5014254;28;20053;-73
2022/11/20 01:49:47;;;;;;;;;;;-1.20;99.90;;;;;;4996414;28;19944;-73
2022/11/20 01:52:24;;;;;;;;;;;-1.30;99.90;;;;;;4997068;28;20004;-74
2022/11/20 01:54:52;;;;;;;;;;;-1.30;99.90;;;;;;4998349;28;19917;-73
2022/11/20 01:57:19;;;;;;;;;;;-1.30;99.90;;;;;;5001350;28;19913;-74
2022/11/20 01:59:48;;;;;;;;;;;-1.30;99.90;;;;;;5000352;28;20309;-73
2022/11/20 02:02:14;;;;;;;;;;;-1.30;99.90;;;;;;4979605;28;19922;-73
2022/11/20 02:04:39;;;;;;;;;;;-1.30;99.90;;;;;;4983071;28;19913;-74
2022/11/20 02:07:05;;;;;;;;;;;-1.30;99.90;;;;;;4997240;28;20420;-72
2022/11/20 02:09:30;;;;;;;;;;;-1.30;99.90;;;;;;5003433;28;20016;-74
2022/11/20 02:11:57;;;;;;;;;;;-1.20;99.90;;;;;;5007098;28;19971;-74
2022/11/20 02:14:24;;;;;;;;;;;-1.20;99.90;;;;;;5009532;28;19944;-73
2022/11/20 02:16:49;;;;;;;;;;;-1.20;99.90;;;;;;5007460;28;19921;-73
2022/11/20 02:19:28;;;;;;;;;;;-1.20;99.90;;;;;;5004575;28;20293;-74
2022/11/20 02:22:04;;;;;;;;;;;-1.20;99.90;;;;;;4992087;28;20015;-74
2022/11/20 02:24:30;;;;;;;;;;;-1.20;99.90;;;;;;4985803;28;19917;-73
2022/11/20 02:26:58;;;;;;;;;;;-1.20;99.90;;;;;;5002186;28;19933;-74
2022/11/20 02:29:47;;;;;;;;;;;-1.30;99.90;;;;;;5002905;28;19918;-74
2022/11/20 02:32:23;;;;;;;;;;;-1.30;99.90;;;;;;4974971;28;19925;-74
2022/11/20 02:34:49;;;;;;;;;;;-1.30;99.90;;;;;;4984337;28;20012;-73
2022/11/20 02:37:15;;;;;;;;;;;-1.40;99.90;;;;;;5002843;28;20387;-74
2022/11/20 02:39:41;;;;;;;;;;;-1.40;99.90;;;;;;4983381;28;19917;-74
2022/11/20 02:42:06;;;;;;;;;;;-1.40;99.90;;;;;;5000364;28;20293;-74
2022/11/20 02:44:32;;;;;;;;;;;-1.40;99.90;;;;;;5008904;28;19914;-74
2022/11/20 02:46:58;;;;;;;;;;;-1.40;99.90;;;;;;4991972;28;19928;-74
2022/11/20 02:49:24;;;;;;;;;;;-1.50;99.90;;;;;;5000937;28;19913;-74
2022/11/20 02:51:49;;;;;;;;;;;-1.50;99.90;;;;;;4984674;28;19914;-74
2022/11/20 02:54:15;;;;;;;;;;;-1.50;99.90;;;;;;5001647;28;20509;-74
2022/11/20 02:56:40;;;;;;;;;;;-1.50;99.90;;;;;;5001052;28;19971;-74
2022/11/20 02:59:06;;;;;;;;;;;-1.50;99.90;;;;;;5003106;28;19936;-74
2022/11/20 03:01:32;;;;;;;;;;;-1.50;99.90;;;;;;4982316;28;19925;-74
2022/11/20 03:03:57;;;;;;;;;;;-1.60;99.90;;;;;;5002160;28;19921;-74
2022/11/20 03:06:23;;;;;;;;;;;-1.60;99.90;;;;;;5001303;28;19920;-75
2022/11/20 03:08:48;;;;;;;;;;;-1.60;99.90;;;;;;4993885;28;20346;-74
2022/11/20 03:11:14;;;;;;;;;;;-1.60;99.90;;;;;;4989604;28;19921;-74
2022/11/20 03:13:39;;;;;;;;;;;-1.50;99.90;;;;;;4985229;28;19917;-74
2022/11/20 03:16:09;;;;;;;;;;;-1.50;99.90;;;;;;4999976;28;20372;-73
2022/11/20 03:18:34;;;;;;;;;;;-1.50;99.90;;;;;;4999594;28;19968;-74
2022/11/20 03:21:00;;;;;;;;;;;-1.50;99.90;;;;;;5002640;28;19921;-74
2022/11/20 03:23:25;;;;;;;;;;;-1.50;99.90;;;;;;4998866;28;19961;-74
2022/11/20 03:25:51;;;;;;;;;;;-1.50;99.90;;;;;;5005223;28;19914;-74
2022/11/20 03:28:16;;;;;;;;;;;-1.60;99.90;;;;;;5000529;28;19921;-74
2022/11/20 03:30:42;;;;;;;;;;;-1.60;99.90;;;;;;5000543;28;19914;-74
2022/11/20 03:33:07;;;;;;;;;;;-1.60;99.90;;;;;;4984942;28;19920;-74
2022/11/20 03:35:33;;;;;;;;;;;-1.60;99.90;;;;;;4999161;28;20384;-74
2022/11/20 03:37:58;;;;;;;;;;;-1.60;99.90;;;;;;5002842;28;19917;-75
2022/11/20 03:40:24;;;;;;;;;;;-1.70;99.90;;;;;;5002023;28;19914;-74
2022/11/20 03:42:49;;;;;;;;;;;-1.70;99.90;;;;;;5005836;28;20285;-74
2022/11/20 03:45:16;;;;;;;;;;;-1.70;99.90;;;;;;4982818;28;20020;-74
2022/11/20 03:47:42;;;;;;;;;;;-1.60;99.90;;;;;;4984745;28;19914;-74
2022/11/20 03:50:08;;;;;;;;;;;-1.70;99.90;;;;;;4982338;28;20421;-74
2022/11/20 03:52:34;;;;;;;;;;;-1.70;99.90;;;;;;5020334;28;19972;-74
2022/11/20 03:54:59;;;;;;;;;;;-1.70;99.90;;;;;;5023500;28;19912;-73
2022/11/20 03:57:24;;;;;;;;;;;-1.70;99.90;;;;;;5022544;28;19924;-73
2022/11/20 03:59:50;;;;;;;;;;;-1.80;99.90;;;;;;5009677;28;20246;-73
2022/11/20 04:02:15;;;;;;;;;;;-1.80;99.90;;;;;;5006817;28;19945;-74
2022/11/20 04:04:41;;;;;;;;;;;-1.80;99.90;;;;;;5006718;28;19914;-74
2022/11/20 04:07:06;;;;;;;;;;;-1.80;99.90;;;;;;5004563;28;20721;-74
2022/11/20 04:09:32;;;;;;;;;;;-1.80;99.90;;;;;;5009685;28;19972;-74
2022/11/20 04:11:57;;;;;;;;;;;-1.80;99.90;;;;;;4984737;28;19913;-75
2022/11/20 04:14:23;;;;;;;;;;;-1.80;99.90;;;;;;5002017;28;19917;-73
2022/11/20 04:16:48;;;;;;;;;;;-1.80;99.90;;;;;;5002120;28;20397;-74
2022/11/20 04:19:14;;;;;;;;;;;-1.80;99.90;;;;;;4999537;28;19918;-74
2022/11/20 04:21:40;;;;;;;;;;;-1.90;99.90;;;;;;5000828;28;19948;-74
2022/11/20 04:24:06;;;;;;;;;;;-1.90;99.90;;;;;;5002232;28;20725;-74
2022/11/20 04:26:32;;;;;;;;;;;-1.90;99.90;;;;;;4984559;28;20374;-74
2022/11/20 04:28:58;;;;;;;;;;;-1.90;99.90;;;;;;5001783;28;19913;-75
2022/11/20 04:31:25;;;;;;;;;;;-2.00;99.90;;;;;;4981187;28;19918;-74
2022/11/20 04:33:51;;;;;;;;;;;-2.00;99.90;;;;;;5001348;28;19971;-73
2022/11/20 04:36:21;;;;;;;;;;;-2.00;99.90;;;;;;4985532;28;20338;-74
2022/11/20 04:38:50;;;;;;;;;;;-2.00;99.90;;;;;;4996720;28;19913;-73
2022/11/20 04:41:16;;;;;;;;;;;-2.00;99.90;;;;;;5007583;28;19929;-74
2022/11/20 04:43:45;;;;;;;;;;;-2.00;99.90;;;;;;4982990;28;19918;-74
2022/11/20 04:46:11;;;;;;;;;;;-2.00;99.90;;;;;;5005224;28;19925;-74
2022/11/20 04:48:36;;;;;;;;;;;-2.00;99.90;;;;;;5006326;28;19921;-74
2022/11/20 04:51:05;;;;;;;;;;;-2.00;99.90;;;;;;4998488;28;19918;-74
2022/11/20 04:53:30;;;;;;;;;;;-2.00;99.90;;;;;;4997447;28;19928;-74
2022/11/20 04:56:03;;;;;;;;;;;-2.00;99.90;;;;;;5000773;28;19944;-73
2022/11/20 04:58:29;;;;;;;;;;;-2.00;99.90;;;;;;4996998;28;20370;-74
2022/11/20 05:01:02;;;;;;;;;;;-2.00;99.90;;;;;;5002790;28;19936;-73
2022/11/20 05:03:27;;;;;;;;;;;-2.00;99.90;;;;;;4997290;28;19913;-73
2022/11/20 05:05:53;;;;;;;;;;;-1.90;99.90;;;;;;5001100;28;19936;-74
2022/11/20 05:08:18;;;;;;;;;;;-1.90;99.90;;;;;;4980477;28;20297;-74
2022/11/20 05:10:43;;;;;;;;;;;-1.90;99.90;;;;;;4999850;28;20000;-74
2022/11/20 05:13:09;;;;;;;;;;;-2.00;99.90;;;;;;4999336;28;19933;-73
2022/11/20 05:15:34;;;;;;;;;;;-2.00;99.90;;;;;;5001291;28;19925;-74
2022/11/20 05:18:00;;;;;;;;;;;-2.00;99.90;;;;;;4997239;28;20000;-74
2022/11/20 05:20:25;;;;;;;;;;;-2.00;99.90;;;;;;4979723;28;19921;-74
2022/11/20 05:22:51;;;;;;;;;;;-2.00;99.90;;;;;;5000632;28;19920;-74
2022/11/20 05:25:16;;;;;;;;;;;-2.00;99.90;;;;;;4981834;28;19914;-74
2022/11/20 05:27:42;;;;;;;;;;;-2.00;99.90;;;;;;5001243;28;19914;-73
2022/11/20 05:30:08;;;;;;;;;;;-2.00;99.90;;;;;;5000571;28;20640;-74
2022/11/20 05:32:33;;;;;;;;;;;-2.00;99.90;;;;;;5001622;28;20425;-73
2022/11/20 05:34:59;;;;;;;;;;;-1.90;99.90;;;;;;5013480;28;19914;-73
2022/11/20 05:37:24;;;;;;;;;;;-1.90;99.90;;;;;;5008015;28;20004;-73
2022/11/20 05:39:50;;;;;;;;;;;-1.80;99.90;;;;;;5007596;28;19913;-73
2022/11/20 05:42:30;;;;;;;;;;;-1.90;99.90;;;;;;5003381;28;19929;-74
2022/11/20 05:45:00;;;;;;;;;;;-1.80;99.90;;;;;;4997570;28;20293;-74
2022/11/20 05:47:26;;;;;;;;;;;-1.90;99.90;;;;;;4979063;28;19914;-74
2022/11/20 05:49:52;;;;;;;;;;;-1.90;99.90;;;;;;5001194;28;20289;-75
2022/11/20 05:52:17;;;;;;;;;;;-1.90;99.90;;;;;;4997186;28;20005;-74
2022/11/20 05:54:43;;;;;;;;;;;-1.90;99.90;;;;;;4999194;28;19968;-74
2022/11/20 05:57:08;;;;;;;;;;;-1.90;99.90;;;;;;4998911;28;19928;-74
2022/11/20 05:59:34;;;;;;;;;;;-1.90;99.90;;;;;;4983591;28;19972;-74
2022/11/20 06:01:59;;;;;;;;;;;-2.00;99.90;;;;;;4997286;28;19948;-74
2022/11/20 06:04:25;;;;;;;;;;;-2.00;99.90;;;;;;4982359;28;19917;-74
2022/11/20 06:06:50;;;;;;;;;;;-2.00;99.90;;;;;;4997797;28;20326;-74
2022/11/20 06:09:15;;;;;;;;;;;-2.00;99.90;;;;;;4981233;28;19929;-74
2022/11/20 06:11:41;;;;;;;;;;;-2.00;99.90;;;;;;4999982;28;20399;-74
2022/11/20 06:14:06;;;;;;;;;;;-2.00;99.90;;;;;;4997767;28;19932;-74
2022/11/20 06:16:32;;;;;;;;;;;-2.00;99.90;;;;;;5002460;28;19972;-74
2022/11/20 06:18:57;;;;;;;;;;;-1.90;99.90;;;;;;4979838;28;20452;-74
2022/11/20 06:21:23;;;;;;;;;;;-1.90;99.90;;;;;;5005333;28;19945;-73
2022/11/20 06:23:49;;;;;;;;;;;-1.90;99.90;;;;;;5011690;28;19914;-74
2022/11/20 06:26:16;;;;;;;;;;;-1.80;99.90;;;;;;4985981;28;19921;-74
2022/11/20 06:28:42;;;;;;;;;;;-1.80;99.90;;;;;;5000496;28;20337;-74
2022/11/20 06:31:09;;;;;;;;;;;-1.80;99.90;;;;;;4998655;28;19913;-73
2022/11/20 06:33:35;;;;;;;;;;;-1.80;99.90;;;;;;4980490;28;19918;-74
2022/11/20 06:36:00;;;;;;;;;;;-1.80;99.90;;;;;;4999898;28;19917;-74
2022/11/20 06:38:26;;;;;;;;;;;-1.80;99.90;;;;;;4996838;28;19913;-74
2022/11/20 06:40:52;;;;;;;;;;;-1.70;99.90;;;;;;5000823;28;19921;-74
2022/11/20 06:43:17;;;;;;;;;;;-1.70;99.90;;;;;;4978240;28;20560;-74
2022/11/20 06:45:43;;;;;;;;;;;-1.70;99.90;;;;;;5001501;28;20397;-75
2022/11/20 06:48:09;;;;;;;;;;;-1.80;99.90;;;;;;4999126;28;20000;-73
2022/11/20 06:50:36;;;;;;;;;;;-1.80;99.90;;;;;;5001065;28;20019;-73
2022/11/20 06:53:02;;;;;;;;;;;-1.70;99.90;;;;;;4999007;28;19918;-73
2022/11/20 06:55:27;;;;;;;;;;;-1.70;99.90;;;;;;4997473;28;19933;-75
2022/11/20 06:57:53;;;;;;;;;;;-1.70;99.90;;;;;;5017474;28;19921;-74
2022/11/20 07:00:18;;;;;;;;;;;-1.70;99.90;;;;;;5000112;28;19985;-74
2022/11/20 07:02:44;;;;;;;;;;;-1.70;99.90;;;;;;5001170;28;19921;-74
2022/11/20 07:05:09;;;;;;;;;;;-1.60;99.90;;;;;;5003490;28;19913;-74
2022/11/20 07:07:35;;;;;;;;;;;-1.60;99.90;;;;;;5003355;28;19940;-74
2022/11/20 07:10:00;;;;;;;;;;;-1.60;99.90;;;;;;5009585;28;19925;-74
2022/11/20 07:12:26;;;;;;;;;;;-1.60;99.90;;;;;;4984254;28;19949;-74
2022/11/20 07:14:51;;;;;;;;;;;-1.60;99.90;;;;;;4989162;28;19992;-74
2022/11/20 07:17:17;;;;;;;;;;;-1.60;99.90;;;;;;4990863;28;19920;-74
2022/11/20 07:19:42;;;;;;;;;;;-1.60;99.90;;;;;;5013940;28;20405;-74
2022/11/20 07:22:08;;;;;;;;;;;-1.50;99.90;;;;;;5013798;28;19914;-74
2022/11/20 07:24:34;;;;;;;;;;;-1.50;99.90;;;;;;4989425;28;19921;-74
2022/11/20 07:27:00;;;;;;;;;;;-1.40;99.90;;;;;;5008357;28;19991;-74
2022/11/20 07:29:25;;;;;;;;;;;-1.40;99.90;;;;;;5003107;28;20318;-74
2022/11/20 07:31:51;;;;;;;;;;;-1.30;99.90;;;;;;5005971;28;19920;-74
2022/11/20 07:34:16;;;;;;;;;;;-1.30;99.90;;;;;;5005180;28;19972;-74
2022/11/20 07:36:42;;;;;;;;;;;-1.30;99.90;;;;;;5001864;28;19922;-74
2022/11/20 07:39:07;;;;;;;;;;;-1.30;99.90;;;;;;5003749;28;19968;-74
2022/11/20 07:41:33;;;;;;;;;;;-1.30;99.90;;;;;;4990036;28;19914;-74
2022/11/20 07:43:58;;;;;;;;;;;-1.20;99.90;;;;;;4991759;28;19949;-74
2022/11/20 07:46:24;;;;;;;;;;;-1.10;99.90;;;;;;5011136;28;20008;-74
2022/11/20 07:48:49;;;;;;;;;;;-1.10;99.90;;;;;;5026392;28;19914;-74
2022/11/20 07:51:14;;;;;;;;;;;-1.00;99.90;;;;;;5014818;28;19932;-74
2022/11/20 07:53:40;;;;;;;;;;;-0.80;99.90;;;;;;5021113;28;19933;-74
2022/11/20 07:56:06;;;;;;;;;;;-0.80;99.90;;;;;;5008986;28;19993;-74
2022/11/20 07:58:32;;;;;;;;;;;-0.70;99.90;;;;;;5027464;28;19913;-74
2022/11/20 08:01:02;;;;;;;;;;;-0.70;99.90;;;;;;5028781;28;19914;-74
2022/11/20 08:03:28;;;;;;;;;;;-0.70;99.90;;;;;;5020164;28;19917;-74
2022/11/20 08:05:53;;;;;;;;;;;-0.70;99.90;;;;;;5006455;28;19924;-73
2022/11/20 08:08:19;;;;;;;;;;;-0.60;99.90;;;;;;5002381;28;20389;-74
2022/11/20 08:10:45;;;;;;;;;;;-0.50;99.90;;;;;;4999609;28;20461;-74
2022/11/20 08:15:54;;;;;;;;;;;-0.40;99.90;;;;;;5003241;28;19928;-74
2022/11/20 08:18:20;;;;;;;;;;;-0.40;99.90;;;;;;4986743;28;20006;-72
2022/11/20 08:20:45;;;;;;;;;;;-0.30;99.90;;;;;;5000410;28;20373;-74
2022/11/20 08:23:11;;;;;;;;;;;-0.30;99.90;;;;;;4999510;28;20026;-73
2022/11/20 08:25:37;;;;;;;;;;;-0.20;99.90;;;;;;5005221;28;20023;-74
2022/11/20 08:28:04;;;;;;;;;;;-0.20;99.90;;;;;;4988909;28;19920;-74
2022/11/20 08:30:29;;;;;;;;;;;-0.10;99.90;;;;;;4981005;28;19917;-73
2022/11/20 08:33:00;;;;;;;;;;;-0.20;99.90;;;;;;5001852;28;19921;-74
2022/11/20 08:35:26;;;;;;;;;;;-0.10;99.90;;;;;;4981831;28;19918;-74
2022/11/20 08:37:51;;;;;;;;;;;-0.10;99.90;;;;;;5001439;28;19924;-74
2022/11/20 08:40:17;;;;;;;;;;;-0.10;99.90;;;;;;4998092;28;20007;-74
2022/11/20 08:42:49;;;;;;;;;;;0.00;99.90;;;;;;4983843;28;19917;-75
2022/11/20 08:45:15;;;;;;;;;;;0.00;99.90;;;;;;4980083;28;19929;-75
2022/11/20 08:47:41;;;;;;;;;;;0.00;99.90;;;;;;5005675;28;20305;-73
2022/11/20 08:50:08;;;;;;;;;;;0.10;99.90;;;;;;5007226;28;19929;-74
2022/11/20 08:52:33;;;;;;;;;;;0.10;99.90;;;;;;5002961;28;19921;-74
2022/11/20 08:54:59;;;;;;;;;;;0.00;99.90;;;;;;5002719;28;19913;-72
2022/11/20 08:57:24;;;;;;;;;;;0.10;99.90;;;;;;4983512;28;19937;-74
2022/11/20 08:59:50;;;;;;;;;;;0.10;99.90;;;;;;4989345;28;20534;-73
2022/11/20 09:02:15;;;;;;;;;;;0.10;99.90;;;;;;4984181;28;19953;-73
2022/11/20 09:04:41;;;;;;;;;;;0.10;99.90;;;;;;5007757;28;19964;-74
2022/11/20 09:07:06;;;;;;;;;;;0.20;99.90;;;;;;5001561;28;19953;-72
2022/11/20 09:09:32;;;;;;;;;;;0.20;99.90;;;;;;5009711;28;19968;-72
2022/11/20 09:11:58;;;;;;;;;;;0.30;99.90;;;;;;4986437;28;20084;-72
2022/11/20 09:14:28;;;;;;;;;;;0.30;99.90;;;;;;4983717;28;19917;-73
2022/11/20 09:16:57;;;;;;;;;;;0.40;99.90;;;;;;5000804;28;20366;-72
2022/11/20 09:19:26;;;;;;;;;;;0.30;99.90;;;;;;4997574;28;19917;-72
2022/11/20 09:21:51;;;;;;;;;;;0.30;99.90;;;;;;4996476;28;20000;-72
2022/11/20 09:24:17;;;;;;;;;;;0.40;99.90;;;;;;4995301;28;20347;-72
2022/11/20 09:26:43;;;;;;;;;;;0.50;99.90;;;;;;5002584;28;20042;-73
2022/11/20 09:29:08;;;;;;;;;;;0.70;99.90;;;;;;5002369;28;19914;-73
2022/11/20 09:31:34;;;;;;;;;;;0.70;99.90;;;;;;4999068;28;20723;-73
2022/11/20 09:33:59;;;;;;;;;;;0.80;99.90;;;;;;4981576;28;19917;-73
2022/11/20 09:36:26;;;;;;;;;;;0.80;99.90;;;;;;4997874;28;19944;-73
2022/11/20 09:38:52;;;;;;;;;;;0.90;99.90;;;;;;5000642;28;20014;-73
2022/11/20 09:41:36;;;;;;;;;;;0.90;99.90;;;;;;5000400;28;21528;-73
2022/11/20 09:44:02;;;;;;;;;;;0.90;99.90;;;;;;5000704;28;19933;-72
2022/11/20 09:46:38;;;;;;;;;;;1.00;99.90;;;;;;5008228;28;20423;-72
2022/11/20 09:49:20;;;;;;;;;;;1.00;99.90;;;;;;5006227;28;19951;-73
2022/11/20 09:51:55;;;;;;;;;;;1.10;99.90;;;;;;5005718;28;20604;-73
2022/11/20 09:54:22;;;;;;;;;;;1.20;99.90;;;;;;5005013;28;20506;-73
2022/11/20 09:56:56;;;;;;;;;;;1.20;99.90;;;;;;5006716;28;19928;-72
2022/11/20 09:59:27;;;;;;;;;;;1.20;99.90;;;;;;5000372;28;19952;-73
2022/11/20 10:01:53;;;;;;;;;;;1.20;99.90;;;;;;4980591;28;19917;-71
2022/11/20 10:04:20;;;;;;;;;;;1.30;99.90;;;;;;5007151;28;19981;-73
2022/11/20 10:07:06;;;;;;;;;;;1.30;99.90;;;;;;5008516;28;20560;-73
2022/11/20 10:09:34;;;;;;;;;;;1.40;99.90;;;;;;5015470;28;19944;-73
2022/11/20 10:12:18;;;;;;;;;;;1.40;99.90;;;;;;5006355;28;20432;-72
2022/11/20 10:15:10;;;;;;;;;;;1.50;99.90;;;;;;5001702;28;19913;-71
2022/11/20 10:17:44;;;;;;;;;;;1.50;99.90;;;;;;5002848;28;20458;-73
2022/11/20 10:20:19;;;;;;;;;;;1.50;99.90;;;;;;5003715;28;19917;-74
2022/11/20 10:22:57;;;;;;;;;;;1.60;99.90;;;;;;5005770;28;19941;-73
2022/11/20 10:25:24;;;;;;;;;;;1.70;99.90;;;;;;5001457;28;20354;-73
2022/11/20 10:27:56;;;;;;;;;;;1.70;99.90;;;;;;4997844;28;20374;-73
2022/11/20 10:30:24;;;;;;;;;;;1.70;99.90;;;;;;4995865;28;20012;-74
2022/11/20 10:32:52;;;;;;;;;;;1.70;99.90;;;;;;4998469;28;20307;-72
2022/11/20 10:35:18;;;;;;;;;;;1.70;99.90;;;;;;5004451;28;19932;-73
2022/11/20 10:37:49;;;;;;;;;;;1.80;99.90;;;;;;4990873;28;19917;-73
2022/11/20 10:40:20;;;;;;;;;;;1.70;99.90;;;;;;4982919;28;19940;-74
2022/11/20 10:43:04;;;;;;;;;;;1.80;99.90;;;;;;5002838;28;20342;-73
2022/11/20 10:45:37;;;;;;;;;;;1.80;99.90;;;;;;4984264;28;19918;-73
2022/11/20 10:48:08;;;;;;;;;;;1.90;99.90;;;;;;5000134;28;19918;-73
2022/11/20 10:50:35;;;;;;;;;;;1.90;99.90;;;;;;4985322;28;20313;-72
2022/11/20 10:53:07;;;;;;;;;;;2.00;99.90;;;;;;4984674;28;19917;-73
2022/11/20 10:55:54;;;;;;;;;;;2.00;99.90;;;;;;4988535;28;19930;-73
2022/11/20 10:58:29;;;;;;;;;;;2.10;99.90;;;;;;4980132;28;19917;-73
2022/11/20 11:01:15;;;;;;;;;;;2.10;99.90;;;;;;5000540;28;19917;-74
2022/11/20 11:03:43;;;;;;;;;;;2.20;99.90;;;;;;4986354;28;19914;-75
2022/11/20 11:06:08;;;;;;;;;;;2.20;99.90;;;;;;5008260;28;20424;-73
2022/11/20 11:08:36;;;;;;;;;;;2.20;99.90;;;;;;5000135;28;20008;-74
2022/11/20 11:11:22;;;;;;;;;;;2.20;99.90;;;;;;4999284;28;20013;-74
2022/11/20 11:13:47;;;;;;;;;;;2.20;99.90;;;;;;4999730;28;19914;-74
2022/11/20 11:16:21;;;;;;;;;;;2.20;99.90;;;;;;5003578;28;19944;-73
2022/11/20 11:18:46;;;;;;;;;;;2.20;99.90;;;;;;5000115;28;20378;-73
2022/11/20 11:21:12;;;;;;;;;;;2.20;99.90;;;;;;5001896;28;19944;-73
2022/11/20 11:23:39;;;;;;;;;;;2.10;99.90;;;;;;5005286;28;19920;-74
2022/11/20 11:26:06;;;;;;;;;;;2.20;99.90;;;;;;5000026;28;19978;-74
2022/11/20 11:28:31;;;;;;;;;;;2.10;99.90;;;;;;4997406;28;20559;-74
2022/11/20 11:30:57;;;;;;;;;;;2.10;99.90;;;;;;5003604;28;20039;-74
2022/11/20 11:33:26;;;;;;;;;;;2.10;99.90;;;;;;4998780;28;19918;-74
2022/11/20 11:35:53;;;;;;;;;;;2.00;99.90;;;;;;5000898;28;19962;-73
2022/11/20 11:38:27;;;;;;;;;;;2.10;99.90;;;;;;5000168;28;19928;-73
2022/11/20 11:40:53;;;;;;;;;;;2.10;99.90;;;;;;5001352;28;19924;-74
2022/11/20 11:46:25;;;;;;;;;;;2.10;99.90;;;;;;5001973;28;20400;-74
2022/11/20 11:48:55;;;;;;;;;;;2.10;99.90;;;;;;4982926;28;19967;-73
2022/11/20 11:51:21;;;;;;;;;;;2.10;99.90;;;;;;5000427;28;19957;-73
2022/11/20 11:53:46;;;;;;;;;;;2.20;99.90;;;;;;4982836;28;19975;-74
2022/11/20 11:56:13;;;;;;;;;;;2.20;99.90;;;;;;4983083;28;19917;-74
2022/11/20 11:58:42;;;;;;;;;;;2.20;99.90;;;;;;4981130;28;20629;-75
2022/11/20 12:01:22;;;;;;;;;;;2.20;99.90;;;;;;4989705;28;19920;-75
2022/11/20 12:04:06;;;;;;;;;;;2.20;99.90;;;;;;4999225;28;19935;-75
2022/11/20 12:06:34;;;;;;;;;;;2.30;99.90;;;;;;5020077;28;19914;-75
2022/11/20 12:09:04;;;;;;;;;;;2.30;99.90;;;;;;5001277;28;19913;-75
2022/11/20 12:11:58;;;;;;;;;;;2.30;99.90;;;;;;5002023;28;20313;-75
2022/11/20 12:14:33;;;;;;;;;;;2.30;99.90;;;;;;4983029;28;19951;-74
2022/11/20 12:17:00;;;;;;;;;;;2.40;99.90;;;;;;5002608;28;19965;-74
2022/11/20 12:19:28;;;;;;;;;;;2.40;99.90;;;;;;4990546;28;20349;-75
2022/11/20 12:22:07;;;;;;;;;;;2.50;99.90;;;;;;5005144;28;19924;-74
2022/11/20 12:24:38;;;;;;;;;;;2.50;99.90;;;;;;4999433;28;19917;-73
2022/11/20 12:27:10;;;;;;;;;;;2.40;99.90;;;;;;4984228;28;19917;-76
2022/11/20 12:29:47;;;;;;;;;;;2.40;99.90;;;;;;4997800;28;19964;-74
2022/11/20 12:32:25;;;;;;;;;;;2.40;99.90;;;;;;4998722;28;19987;-74
2022/11/20 12:35:23;;;;;;;;;;;2.50;99.90;;;;;;4981859;28;19920;-74
2022/11/20 12:37:54;;;;;;;;;;;2.60;99.90;;;;;;4949718;28;19921;-74
2022/11/20 12:40:29;;;;;;;;;;;2.50;99.90;;;;;;4981806;28;19921;-74
2022/11/20 12:45:56;;;;;;;;;;;2.50;99.90;;;;;;4998759;28;20306;-74
2022/11/20 12:48:37;;;;;;;;;;;2.60;99.90;;;;;;4995890;28;19918;-73
2022/11/20 12:51:21;;;;;;;;;;;2.60;99.90;;;;;;5000056;28;19949;-75
2022/11/20 12:53:50;;;;;;;;;;;2.70;99.90;;;;;;4996929;28;19918;-75
2022/11/20 12:56:21;;;;;;;;;;;2.70;99.90;;;;;;4981055;28;19935;-75
2022/11/20 12:58:59;;;;;;;;;;;2.70;99.90;;;;;;4974450;28;19932;-74
2022/11/20 13:01:39;;;;;;;;;;;2.70;99.90;;;;;;5003033;28;19926;-75
2022/11/20 13:04:33;;;;;;;;;;;2.70;99.90;;;;;;5006079;28;20088;-74
2022/11/20 13:07:01;;;;;;;;;;;2.70;99.90;;;;;;4983598;28;19913;-75
2022/11/20 13:09:28;;;;;;;;;;;2.70;99.90;;;;;;4983675;28;20013;-74
2022/11/20 13:12:12;;;;;;;;;;;2.60;99.90;;;;;;5000518;28;19914;-75
2022/11/20 13:14:41;;;;;;;;;;;2.70;99.90;;;;;;4996209;28;19917;-75
2022/11/20 13:17:09;;;;;;;;;;;2.70;99.90;;;;;;5000131;28;20505;-75
2022/11/20 13:19:35;;;;;;;;;;;2.80;99.90;;;;;;4999108;28;19922;-74
2022/11/20 13:22:00;;;;;;;;;;;2.80;99.90;;;;;;5002564;28;20443;-74
2022/11/20 13:24:29;;;;;;;;;;;2.80;99.90;;;;;;4980311;28;20004;-74
2022/11/20 13:27:07;;;;;;;;;;;2.80;99.90;;;;;;5006113;28;20008;-74
2022/11/20 13:29:37;;;;;;;;;;;2.80;99.90;;;;;;5002554;28;19973;-74
2022/11/20 13:32:02;;;;;;;;;;;2.80;99.90;;;;;;5015431;28;19914;-75
2022/11/20 13:34:28;;;;;;;;;;;2.80;99.90;;;;;;5017497;28;19920;-74
2022/11/20 13:36:55;;;;;;;;;;;2.80;99.90;;;;;;5010339;28;19948;-70
2022/11/20 13:39:38;;;;;;;;;;;2.80;99.90;;;;;;5016624;28;19921;-73
2022/11/20 13:42:13;;;;;;;;;;;2.70;99.90;;;;;;5013920;28;19913;-73
2022/11/20 13:44:41;;;;;;;;;;;2.80;99.90;;;;;;5010138;28;19914;-74
2022/11/20 13:47:26;;;;;;;;;;;2.70;99.90;;;;;;5001361;28;19920;-74
2022/11/20 13:49:54;;;;;;;;;;;2.70;99.90;;;;;;5001379;28;20348;-72
2022/11/20 13:52:38;;;;;;;;;;;2.80;99.90;;;;;;4998339;28;19917;-74
2022/11/20 13:55:04;;;;;;;;;;;2.80;99.90;;;;;;5000019;28;19917;-74
2022/11/20 13:57:29;;;;;;;;;;;2.80;99.90;;;;;;4984424;28;19921;-71
2022/11/20 14:00:08;;;;;;;;;;;2.70;99.90;;;;;;5005283;28;19953;-75
2022/11/20 14:02:33;;;;;;;;;;;2.70;99.90;;;;;;5006743;28;19917;-73
2022/11/20 14:04:59;;;;;;;;;;;2.70;99.90;;;;;;5000801;28;19951;-73
2022/11/20 14:07:43;;;;;;;;;;;2.70;99.90;;;;;;4995069;28;19917;-73
2022/11/20 14:10:25;;;;;;;;;;;2.70;99.90;;;;;;4998356;28;19913;-73
2022/11/20 14:12:51;;;;;;;;;;;2.70;99.90;;;;;;5002595;28;19961;-74
2022/11/20 14:15:30;;;;;;;;;;;2.70;99.90;;;;;;4997520;28;19956;-74
2022/11/20 14:17:56;;;;;;;;;;;2.70;99.90;;;;;;5009904;28;19921;-73
2022/11/20 14:20:25;;;;;;;;;;;2.70;99.90;;;;;;5009769;28;19968;-74
2022/11/20 14:22:51;;;;;;;;;;;2.70;99.90;;;;;;5010370;28;20028;-74
2022/11/20 14:25:16;;;;;;;;;;;2.70;99.90;;;;;;4997601;28;20747;-72
2022/11/20 14:27:42;;;;;;;;;;;2.70;99.90;;;;;;5008969;28;20286;-74
2022/11/20 14:30:15;;;;;;;;;;;2.70;99.90;;;;;;5001887;28;19913;-73
2022/11/20 14:32:42;;;;;;;;;;;2.70;99.90;;;;;;5008905;28;19917;-73
2022/11/20 14:35:09;;;;;;;;;;;2.80;99.90;;;;;;5008906;28;19913;-74
2022/11/20 14:37:36;;;;;;;;;;;2.70;99.90;;;;;;5009553;28;19913;-74
2022/11/20 14:40:03;;;;;;;;;;;2.70;99.90;;;;;;4999197;28;19996;-73